WSSS/SIN METAR and TAF weather

Enter ICAO airport designator
Station Type Date Time Source
WSSS METAR 2020/01/28 21:00 UTC NOAA

WSSS 282100Z 02003KT 330V060 9999 FEW016 SCT050 BKN140 27/25 Q1011 NOSIG


Station Type Date Time Source
WSSS Decoded METAR 2020/01/28 21:00 UTC NOAA

Singapore / Changi Airport, Singapore (WSSS) 01-22N 103-59E 16M
Jan 28, 2020 - 04:00 PM EST / 2020.01.28 2100 UTC
Wind: from the NNE (020 degrees) at 3 MPH (3 KT) (direction variable):0
Visibility: greater than 7 mile(s):0
Sky conditions: mostly cloudy
Temperature: 80 F (27 C)
Dew Point: 77 F (25 C)
Relative Humidity: 88%
Pressure (altimeter): 29.85 in. Hg (1011 hPa)
ob: WSSS 282100Z 02003KT 330V060 9999 FEW016 SCT050 BKN140 27/25 Q1011 NOSIG
cycle: 21

Station Type Date Time Source
WSSS TAF 2020/01/28 18:16 UTC NOAA

TAF WSSS 281700Z 2818/3000 35009KT 9999 FEW015 SCT020
TEMPO 2905/2909 3000 TSRA FEW012CB BKN015

Example: see airport list